• Join FlightAware (Why Join?)
  • Login
  • US Flag 
05:15AM EDT


 

Airport Tracker/Info


-or-


 

Live Flight TrackerFlight Track Log ✈ DAL6044 ✈ 01-May-2013 ✈ KLGA - KCLE

Flight Track Log - Related Links

Times and Time Zones

All times are in EDT time to prevent confusion due to time zone crossing. See the DAL6044 flight status page for this flight to view local times or setup timezone preferences in your user account.

Time Position Orientation Groundspeed Altitude Reporting Facility
EDT Latitude Longitude Course Direction KTS MPH feet Rate Location/Type
05:27PM 40.7333 -73.8167 294° West 187 215 3,800  Level New York TRACON
05:28PM 40.7833 -73.8667 323° Northwest 222 255 6,600 2,760 Climbing New York TRACON
05:29PM 40.8345 -74.4162 275° West  Level FlightAware Approximate
05:29PM 40.8000 -73.9500 285° West 263 303 9,400  Level New York TRACON
05:30PM 40.8446 -74.5576 275° West  Level FlightAware Approximate
05:30PM 40.8333 -74.0333 298° West 285 328 12,100  Level New York TRACON
05:31PM 40.8553 -74.6985 282° West  Level FlightAware Approximate
05:31PM 40.8667 -74.1500 291° West 329 379 14,100  Level New York TRACON
05:32PM 40.8786 -74.8356 294° West  Level FlightAware Approximate
05:32PM 40.8667 -74.2667 270° West 338 389 16,300  Level New York TRACON
05:32PM 40.8753 -74.3825 276° West 351 404 17,000 360 Climbing New York Center
05:33PM 40.8819 -74.4956 274° West 346 398 17,000  Level New York Center
05:34PM 40.8883 -74.6247 274° West 323 372 17,000  Level New York Center
05:35PM 40.8958 -74.7158 276° West 337 388 17,100 240 Climbing New York Center
05:36PM 40.9017 -74.8478 273° West 329 379 17,500 1,080 Climbing New York Center
05:37PM 40.9078 -74.9719 274° West 334 384 19,300 1,980 Climbing New York Center
05:38PM 40.9156 -75.0986 275° West 334 384 21,500 2,220 Climbing New York Center
05:39PM 40.9047 -75.2269 264° West 346 398 23,800 1,980 Climbing New York Center
05:40PM 40.8744 -75.3594 253° West 360 414 25,600 1,080 Climbing New York Center
05:41PM 40.8419 -75.4972 253° West 385 443 26,000 180 Climbing New York Center
05:42PM 40.8094 -75.6347 253° West 396 456 26,000  Level New York Center
05:43PM 40.7767 -75.7694 252° West 396 456 26,000  Level New York Center
05:44PM 40.7536 -75.8719 253° West 385 443 26,000 420 Level New York Center
05:45PM 40.7228 -76.0039 253° West 366 421 26,900 1,560 Climbing New York Center
05:46PM 40.6922 -76.1247 252° West 354 407 29,100 1,920 Climbing New York Center
05:47PM 40.6658 -76.2458 254° West 354 407 30,700 1,260 Climbing New York Center
05:48PM 40.6828 -76.3783 280° West 348 400 31,700 600 Climbing New York Center
05:49PM 40.7033 -76.5142 281° West 361 415 32,000 120 Climbing New York Center
05:50PM 40.7258 -76.6475 283° West 372 428 32,000  Level New York Center
05:51PM 40.7442 -76.7808 280° West 372 428 32,000  Level New York Center
05:52PM 40.7628 -76.9083 281° West 372 428 32,000  Level New York Center
05:53PM 40.7808 -77.0389 280° West 372 428 32,000  Level New York Center
05:54PM 40.7989 -77.1667 281° West 366 421 32,000  Level New York Center
05:57PM 40.8469 -77.5033 281° West 356 410 32,000  Level Cleveland Center
05:58PM 40.8672 -77.6369 281° West 366 421 32,000  Level Cleveland Center
05:59PM 40.8850 -77.7678 280° West 371 427 32,000  Level Cleveland Center
06:00PM 40.9031 -77.9017 280° West 371 427 32,000  Level Cleveland Center
06:01PM 40.9228 -78.0356 281° West 371 427 32,000  Level Cleveland Center
06:02PM 40.9442 -78.1667 282° West 371 427 32,000  Level Cleveland Center
06:03PM 40.9656 -78.2842 284° West 371 427 32,000  Level Cleveland Center
06:04PM 40.9867 -78.4156 282° West 371 427 32,000  Level Cleveland Center
06:05PM 41.0100 -78.5469 283° West 371 427 32,000  Level Cleveland Center
06:06PM 41.0292 -78.6811 281° West 371 427 32,000  Level Cleveland Center
06:07PM 41.0519 -78.8128 283° West 371 427 32,000  Level Cleveland Center
06:08PM 41.0728 -78.9417 282° West 371 427 32,000  Level Cleveland Center
06:09PM 41.0933 -79.0733 282° West 371 427 32,000  Level Cleveland Center
06:10PM 41.1136 -79.2025 282° West 371 427 32,000  Level Cleveland Center
06:11PM 41.1339 -79.3369 281° West 371 427 32,000  Level Cleveland Center
06:12PM 41.1519 -79.4664 281° West 371 427 32,000  Level Cleveland Center
06:13PM 41.1719 -79.5983 281° West 371 427 32,000  Level Cleveland Center
06:14PM 41.1939 -79.7442 281° West 371 427 32,000 -120 Level Cleveland Center
06:15PM 41.2136 -79.8711 282° West 371 427 31,800 -540 Descending Cleveland Center
06:16PM 41.2289 -79.9703 282° West 360 414 31,000 -1,140 Descending Cleveland Center
06:17PM 41.2481 -80.0942 282° West 338 389 29,600 -1,740 Descending Cleveland Center
06:18PM 41.2653 -80.2131 281° West 332 382 27,600 -2,040 Descending Cleveland Center
06:19PM 41.2844 -80.3317 282° West 332 382 25,600 -2,100 Descending Cleveland Center
06:20PM 41.2992 -80.4506 279° West 332 382 23,500 -2,100 Descending Cleveland Center
06:21PM 41.3158 -80.5692 281° West 332 382 21,400 -2,340 Descending Cleveland Center
06:22PM 41.3367 -80.6856 283° West 332 382 18,900 -2,520 Descending Cleveland Center
06:23PM 41.3781 -80.7961 297° West 332 382 16,500 -2,760 Descending Cleveland Center
06:24PM 41.4197 -80.9072 297° West 337 388 13,400 -3,000 Descending Cleveland Center
06:25PM 41.4589 -81.0097 297° West 344 396 11,200 -2,220 Descending Cleveland Center
06:25PM 41.4794 -81.0736 293° West 317 365 10,400 -780 Descending Cleveland Center
06:26PM 41.5103 -81.1764 292° West 296 341 10,000 -300 Descending Cleveland Center
06:27PM 41.5100 -81.2403 270° West 301 346 10,000  Level Cleveland Center
06:27PM 41.5117 -81.2931 272° West 288 331 10,000 -540 Level Cleveland Center
06:28PM 41.5092 -81.3428 266° West 287 330 9,500 -1,500 Descending Cleveland Center
06:28PM 41.5089 -81.3928 270° West 264 304 8,500 -1,980 Descending Cleveland Center
06:29PM 41.5106 -81.4400 273° West 274 315 7,600 -2,040 Descending Cleveland Center
06:29PM 41.5125 -81.4817 274° West 264 304 6,700 -1,980 Descending Cleveland Center
06:30PM 41.5078 -81.5397 264° West 269 310 5,600 -1,800 Descending Cleveland Center
06:30PM 41.4992 -81.5811 254° West 269 310 4,900 -960 Descending Cleveland Center
06:31PM 41.4903 -81.6308 257° West 269 310 4,700 -420 Descending Cleveland Center